BAW74L EKCH-EKCH
Flight info
| Callsign | BAW74L |
|---|---|
| Flight time | 0h 9m |
| Altitude | 36000 |
| Route | GOLGA DCT BADAB |
| Aircraft | B744/H-SDE3FGHIM1M2RWXY/LB1 |
Departure
| Time | 2026-05-05 19:36 |
|---|---|
| Airport | Copenhagen Kastrup Airport (EKCH) |
Arrival
| Time | 2026-05-05 19:46 |
|---|---|
| Airport | Copenhagen Kastrup Airport (EKCH) |
| Time | Latitude | Longitude | Altitude | Speed | Heading |
|---|---|---|---|---|---|
| 2026-05-05 19:33 | 56.06804 | 11.76121 | 19478 ft | 370 kts | 143° |
| 2026-05-05 19:33 | 56.04813 | 11.79037 | 18982 ft | 370 kts | 143° |
| 2026-05-05 19:33 | 56.02800 | 11.81972 | 18619 ft | 366 kts | 143° |
| 2026-05-05 19:34 | 56.00856 | 11.84795 | 18261 ft | 365 kts | 143° |
| 2026-05-05 19:34 | 55.98899 | 11.87625 | 17755 ft | 360 kts | 144° |
| 2026-05-05 19:34 | 55.96954 | 11.90427 | 17338 ft | 357 kts | 144° |
| 2026-05-05 19:35 | 55.93250 | 11.95747 | 16733 ft | 333 kts | 144° |
| 2026-05-05 19:35 | 55.91451 | 11.98321 | 16294 ft | 330 kts | 144° |
| 2026-05-05 19:35 | 55.89665 | 12.00865 | 15884 ft | 326 kts | 144° |
| 2026-05-05 19:35 | 55.87896 | 12.03370 | 15325 ft | 323 kts | 144° |
| 2026-05-05 19:36 | 55.86139 | 12.05841 | 14781 ft | 321 kts | 144° |
| 2026-05-05 19:36 | 55.84392 | 12.08284 | 14262 ft | 317 kts | 144° |
| 2026-05-05 19:36 | 55.82661 | 12.10691 | 13732 ft | 314 kts | 144° |
| 2026-05-05 19:36 | 55.80944 | 12.12981 | 13158 ft | 311 kts | 150° |
| 2026-05-05 19:37 | 55.79012 | 12.14625 | 12627 ft | 305 kts | 161° |
| 2026-05-05 19:37 | 55.77037 | 12.15956 | 12106 ft | 303 kts | 163° |
| 2026-05-05 19:37 | 55.75064 | 12.17196 | 11577 ft | 299 kts | 163° |
| 2026-05-05 19:37 | 55.73097 | 12.18396 | 11058 ft | 297 kts | 163° |
| 2026-05-05 19:38 | 55.71153 | 12.19563 | 10545 ft | 294 kts | 164° |
| 2026-05-05 19:38 | 55.69215 | 12.20710 | 10026 ft | 292 kts | 164° |
| 2026-05-05 19:38 | 55.67296 | 12.21834 | 9486 ft | 290 kts | 164° |
| 2026-05-05 19:38 | 55.65392 | 12.22937 | 8953 ft | 286 kts | 164° |
| 2026-05-05 19:39 | 55.63504 | 12.24018 | 8394 ft | 284 kts | 164° |
| 2026-05-05 19:39 | 55.61627 | 12.25080 | 7865 ft | 281 kts | 164° |
| 2026-05-05 19:39 | 55.60393 | 12.25772 | 7515 ft | 280 kts | 164° |
| 2026-05-05 19:39 | 55.57971 | 12.27119 | 6972 ft | 264 kts | 164° |
| 2026-05-05 19:40 | 55.56279 | 12.28056 | 6660 ft | 247 kts | 164° |
| 2026-05-05 19:40 | 55.54663 | 12.28946 | 6189 ft | 238 kts | 164° |
| 2026-05-05 19:40 | 55.53228 | 12.30111 | 5757 ft | 222 kts | 142° |
| 2026-05-05 19:40 | 55.52457 | 12.31316 | 5381 ft | 218 kts | 136° |
| 2026-05-05 19:41 | 55.51379 | 12.33164 | 4872 ft | 215 kts | 134° |
| 2026-05-05 19:41 | 55.50328 | 12.35003 | 4178 ft | 211 kts | 134° |
| 2026-05-05 19:41 | 55.49470 | 12.37034 | 3480 ft | 206 kts | 104° |
| 2026-05-05 19:41 | 55.49498 | 12.39440 | 3009 ft | 194 kts | 76° |
| 2026-05-05 19:42 | 55.49778 | 12.41760 | 2777 ft | 194 kts | 74° |
| 2026-05-05 19:42 | 55.50054 | 12.44034 | 2564 ft | 180 kts | 74° |
| 2026-05-05 19:42 | 55.50319 | 12.46121 | 2376 ft | 172 kts | 67° |
| 2026-05-05 19:42 | 55.51012 | 12.47733 | 2188 ft | 164 kts | 37° |
| 2026-05-05 19:43 | 55.51884 | 12.49002 | 1991 ft | 159 kts | 38° |
| 2026-05-05 19:43 | 55.52704 | 12.50257 | 1769 ft | 154 kts | 39° |
| 2026-05-05 19:43 | 55.53501 | 12.51495 | 1553 ft | 151 kts | 40° |
| 2026-05-05 19:43 | 55.54292 | 12.52724 | 1347 ft | 151 kts | 40° |
| 2026-05-05 19:44 | 55.55080 | 12.53948 | 1141 ft | 150 kts | 39° |
| 2026-05-05 19:44 | 55.55848 | 12.55139 | 942 ft | 145 kts | 39° |
| 2026-05-05 19:44 | 55.56600 | 12.56303 | 731 ft | 143 kts | 39° |
| 2026-05-05 19:44 | 55.57350 | 12.57462 | 535 ft | 143 kts | 38° |
| 2026-05-05 19:45 | 55.58102 | 12.58627 | 355 ft | 143 kts | 38° |
| 2026-05-05 19:45 | 55.58861 | 12.59806 | 217 ft | 145 kts | 36° |
| 2026-05-05 19:45 | 55.59633 | 12.60977 | 32 ft | 141 kts | 36° |
| 2026-05-05 19:45 | 55.60281 | 12.61963 | 31 ft | 100 kts | 42° |
| 2026-05-05 19:46 | 55.60712 | 12.62646 | 33 ft | 60 kts | 37° |
| 2026-05-05 19:46 | 55.61022 | 12.62871 | 31 ft | 45 kts | 13° |
| 2026-05-05 19:46 | 55.61273 | 12.63148 | 31 ft | 41 kts | 39° |
| 2026-05-05 19:46 | 55.61484 | 12.63468 | 31 ft | 38 kts | 40° |
| 2026-05-05 19:47 | 55.61674 | 12.63763 | 31 ft | 33 kts | 41° |
| 2026-05-05 19:47 | 55.61844 | 12.64017 | 31 ft | 31 kts | 34° |
| 2026-05-05 19:47 | 55.62028 | 12.64202 | 30 ft | 30 kts | 26° |
| 2026-05-05 19:47 | 55.62205 | 12.64350 | 30 ft | 24 kts | 22° |
| 2026-05-05 19:48 | 55.62351 | 12.64429 | 29 ft | 20 kts | 10° |
| 2026-05-05 19:48 | 55.62415 | 12.64452 | 30 ft | 0 kts | 13° |
| 2026-05-05 19:49 | 55.62440 | 12.64446 | 30 ft | 6 kts | 323° |
| 2026-05-05 19:49 | 55.62468 | 12.64356 | 30 ft | 10 kts | 290° |
| 2026-05-05 19:49 | 55.62509 | 12.64231 | 30 ft | 13 kts | 306° |
| 2026-05-05 19:49 | 55.62528 | 12.64202 | 30 ft | 0 kts | 351° |
| 2026-05-05 19:55 | 55.62534 | 12.64201 | 30 ft | 2 kts | 1° |
| 2026-05-05 19:56 | 55.62558 | 12.64213 | 30 ft | 5 kts | 32° |
| 2026-05-05 19:56 | 55.62586 | 12.64267 | 30 ft | 7 kts | 59° |
| 2026-05-05 19:56 | 55.62612 | 12.64358 | 30 ft | 9 kts | 66° |
| 2026-05-05 19:56 | 55.62626 | 12.64415 | 30 ft | 0 kts | 67° |